CYVM/YVM METAR and TAF weather

Enter ICAO airport designator
Station Type Date Time Source
CYVM METAR 2019/06/26 22:10 UTC NOAA

CYVM 262210Z AUTO 36007KT 3SM BR FEW001 BKN041 01/00 A3035 RMK SLP281


Station Type Date Time Source
CYVM Decoded METAR 2019/06/26 22:10 UTC NOAA

Broughton Island Airport, Canada (CYVM) 67-33N 064-02W
Jun 26, 2019 - 06:10 PM EDT / 2019.06.26 2210 UTC
Wind: from the N (360 degrees) at 8 MPH (7 KT):0
Visibility: 3 mile(s):0
Sky conditions: mostly cloudy
Weather: mist
Temperature: 33 F (1 C)
Windchill: 26 F (-3 C):1
Dew Point: 32 F (0 C)
Relative Humidity: 93%
Pressure (altimeter): 30.35 in. Hg (1027 hPa)
ob: CYVM 262210Z AUTO 36007KT 3SM BR FEW001 BKN041 01/00 A3035 RMK SLP281
cycle: 22

Station Type Date Time Source
CYVM TAF 2019/06/26 19:42 UTC NOAA

TAF CYVM 261838Z 2619/2707 05008KT 6SM BR SCT004 SCT040
TEMPO 2619/2707 1SM BR BKN004 PROB30 2619/2621 1/2SM FG OVC004
RMK NXT FCST BY 270100Z

Example: see airport list